Time;durP1;ratioP1;P1;durP2;ratioP2;P2;SDS_P1;SDS_P2;PMS_P1;PMS_P2;Temp;Humidity;BMP_temperature;BMP_pressure;BME280_temperature;BME280_humidity;BME280_pressure;Samples;Min_cycle;Max_cycle;Signal;HPM_P1;HPM_P2
2023/08/10 00:00:56;;;;;;;9.17;2.27;;;;;;;12.51;100.00;101028.06;5011380;28;20104;-74
2023/08/10 00:03:21;;;;;;;11.23;2.20;;;;;;;12.49;100.00;101035.44;5027144;28;20146;-73
2023/08/10 00:05:47;;;;;;;8.43;2.20;;;;;;;12.52;100.00;101062.69;5038749;28;20025;-75
2023/08/10 00:08:12;;;;;;;10.03;2.50;;;;;;;12.51;100.00;101066.38;5032528;28;20419;-74
2023/08/10 00:10:38;;;;;;;19.60;3.37;;;;;;;12.44;100.00;101068.06;5035910;28;20025;-75
2023/08/10 00:13:03;;;;;;;11.93;2.30;;;;;;;12.46;100.00;101069.56;5018883;28;20129;-74
2023/08/10 00:15:29;;;;;;;19.27;2.30;;;;;;;12.56;100.00;101106.91;5021696;28;20022;-75
2023/08/10 00:17:55;;;;;;;10.63;2.78;;;;;;;12.56;100.00;101116.78;5024820;28;20112;-73
2023/08/10 00:20:21;;;;;;;10.30;2.65;;;;;;;12.62;100.00;101122.31;5022605;28;20064;-75
2023/08/10 00:22:46;;;;;;;9.00;2.50;;;;;;;12.53;100.00;101112.59;5009156;28;20109;-75
2023/08/10 00:25:12;;;;;;;9.80;2.83;;;;;;;12.57;100.00;101162.16;5024667;28;20125;-74
2023/08/10 00:27:38;;;;;;;15.13;2.37;;;;;;;12.55;100.00;101139.19;5026027;28;20037;-75
2023/08/10 00:30:05;;;;;;;14.70;2.97;;;;;;;12.44;100.00;101082.28;5028138;28;20040;-74
2023/08/10 00:32:30;;;;;;;15.57;2.15;;;;;;;12.53;100.00;101064.38;5025765;28;20128;-75
2023/08/10 00:34:57;;;;;;;14.93;2.47;;;;;;;12.46;100.00;101026.72;5034535;28;20033;-73
2023/08/10 00:37:23;;;;;;;15.37;2.40;;;;;;;12.42;100.00;101020.03;5021595;28;20041;-75
2023/08/10 00:39:48;;;;;;;12.23;2.30;;;;;;;12.48;100.00;101039.09;5035024;28;20362;-75
2023/08/10 00:42:13;;;;;;;13.23;2.40;;;;;;;12.56;100.00;101055.16;5025414;28;20059;-73
2023/08/10 00:44:39;;;;;;;10.40;2.10;;;;;;;12.49;100.00;101044.28;5025320;28;20381;-75
2023/08/10 00:47:06;;;;;;;24.17;2.90;;;;;;;12.45;100.00;101042.94;5026739;28;20045;-73
2023/08/10 00:49:32;;;;;;;13.10;2.92;;;;;;;12.50;100.00;101031.72;5014935;28;20314;-74
2023/08/10 00:51:58;;;;;;;22.30;3.42;;;;;;;12.55;100.00;101030.25;5031110;28;20096;-75
2023/08/10 00:54:24;;;;;;;16.58;2.05;;;;;;;12.53;100.00;101016.19;5023471;28;20246;-75
2023/08/10 00:56:50;;;;;;;17.02;3.92;;;;;;;12.53;100.00;101016.19;5008533;28;20471;-72
2023/08/10 00:59:16;;;;;;;9.88;1.80;;;;;;;12.65;100.00;101036.25;5031051;28;20063;-74
2023/08/10 01:01:42;;;;;;;15.75;2.67;;;;;;;12.56;100.00;101045.28;5026639;28;20060;-75
2023/08/10 01:04:07;;;;;;;15.30;2.25;;;;;;;12.57;100.00;101046.97;5040454;28;20030;-75
2023/08/10 01:07:00;;;;;;;20.97;3.77;;;;;;;12.56;100.00;101074.75;5023840;28;20030;-75
2023/08/10 01:10:09;;;;;;;9.70;2.63;;;;;;;12.58;100.00;101104.06;5030832;28;20107;-75
2023/08/10 01:12:49;;;;;;;21.27;2.85;;;;;;;12.53;100.00;101109.91;4993270;28;20492;-73
2023/08/10 01:15:23;;;;;;;13.65;2.72;;;;;;;12.49;100.00;101121.94;5006740;28;20068;-73
2023/08/10 01:17:56;;;;;;;16.30;2.30;;;;;;;12.48;100.00;101132.81;5021376;28;20129;-73
2023/08/10 01:20:23;;;;;;;13.05;2.40;;;;;;;12.51;100.00;101149.41;5023835;28;20076;-75
2023/08/10 01:23:08;;;;;;;15.77;2.55;;;;;;;12.60;100.00;101169.84;5039787;28;20080;-73
2023/08/10 01:25:35;;;;;;;;;;;;;;;12.48;100.00;101141.72;5006260;28;20090;-72
2023/08/10 01:28:00;;;;;;;;;;;;;;;12.56;100.00;101175.69;5035123;28;21699;-75
2023/08/10 01:30:26;;;;;;;11.27;2.23;;;;;;;12.60;100.00;101183.25;5034834;28;19959;-75
2023/08/10 01:32:52;;;;;;;11.38;2.65;;;;;;;12.54;100.00;101183.88;5035429;28;20031;-75
2023/08/10 01:35:18;;;;;;;15.48;2.13;;;;;;;12.46;100.00;101178.53;5007887;28;20382;-74
2023/08/10 01:37:43;;;;;;;8.45;1.73;;;;;;;12.63;100.00;101220.41;5033737;28;20072;-75
2023/08/10 01:40:12;;;;;;;5.13;1.60;;;;;;;12.54;100.00;101178.53;5024792;28;20103;-73
2023/08/10 01:42:38;;;;;;;15.57;2.20;;;;;;;12.64;100.00;101197.97;5027338;28;20071;-75
2023/08/10 01:45:04;;;;;;;12.23;2.75;;;;;;;12.61;100.00;101225.09;5025220;28;20038;-75
2023/08/10 01:47:43;;;;;;;15.55;2.47;;;;;;;12.59;100.00;101207.50;5024152;28;20041;-75
2023/08/10 01:50:09;;;;;;;17.25;3.33;;;;;;;12.62;100.00;101185.75;5018571;28;20120;-75
2023/08/10 01:52:37;;;;;;;;;;;;;;;12.71;100.00;101195.47;5040473;28;20080;-75
2023/08/10 01:55:05;;;;;;;10.55;1.95;;;;;;;12.61;100.00;101189.44;5014871;28;19912;-73
2023/08/10 01:57:31;;;;;;;15.63;2.55;;;;;;;12.61;100.00;101178.72;5023437;28;20755;-75
2023/08/10 01:59:57;;;;;;;12.27;2.33;;;;;;;12.62;100.00;101213.38;5032133;28;20124;-75
2023/08/10 02:02:22;;;;;;;11.30;1.60;;;;;;;12.62;100.00;101226.78;5023829;28;20037;-75
2023/08/10 02:04:48;;;;;;;8.77;1.77;;;;;;;12.67;100.00;101221.75;5015580;28;20426;-75
2023/08/10 02:07:13;;;;;;;11.53;2.90;;;;;;;12.68;100.00;101218.06;5014058;28;20061;-73
2023/08/10 02:09:40;;;;;;;14.52;2.28;;;;;;;12.75;100.00;101222.78;5040424;28;20033;-73
2023/08/10 02:12:06;;;;;;;11.38;2.75;;;;;;;12.76;100.00;101240.50;5025070;28;20060;-75
2023/08/10 02:14:31;;;;;;;16.42;2.78;;;;;;;12.63;100.00;101228.44;5024747;28;20689;-75
2023/08/10 02:16:56;;;;;;;14.63;3.50;;;;;;;12.64;100.00;101239.97;5025433;28;20032;-75
2023/08/10 02:19:22;;;;;;;10.93;3.57;;;;;;;12.71;100.00;101262.44;5022547;28;20029;-75
2023/08/10 02:21:49;;;;;;;10.10;2.30;;;;;;;12.66;100.00;101262.09;5016985;28;20514;-75
2023/08/10 02:24:15;;;;;;;10.90;2.63;;;;;;;12.64;100.00;101240.84;5021981;28;20040;-73
2023/08/10 02:26:40;;;;;;;21.02;2.20;;;;;;;12.64;100.00;101231.94;5023002;28;20547;-75
2023/08/10 02:29:07;;;;;;;29.52;3.30;;;;;;;12.68;100.00;101235.97;5024110;28;20033;-75
2023/08/10 02:31:32;;;;;;;11.30;2.80;;;;;;;12.77;100.00;101229.63;5025736;28;20029;-75
2023/08/10 02:33:57;;;;;;;17.47;2.87;;;;;;;12.68;100.00;101228.78;5007503;28;20124;-75
2023/08/10 02:36:23;;;;;;;13.10;2.57;;;;;;;12.79;100.00;101248.25;5023601;28;20785;-75
2023/08/10 02:38:48;;;;;;;13.37;2.60;;;;;;;12.74;100.00;101250.59;5008141;28;20029;-75
2023/08/10 02:41:14;;;;;;;12.37;2.30;;;;;;;12.75;100.00;101254.91;5008097;28;20091;-73
2023/08/10 02:43:39;;;;;;;14.00;2.37;;;;;;;12.69;100.00;101218.91;5007522;28;20044;-72
2023/08/10 02:46:04;;;;;;;12.37;2.53;;;;;;;12.71;100.00;101216.88;5025362;28;20276;-72
2023/08/10 02:48:30;;;;;;;9.33;1.87;;;;;;;12.69;100.00;101213.56;5040075;28;20083;-73
2023/08/10 02:50:55;;;;;;;13.00;4.03;;;;;;;12.74;100.00;101242.53;5024153;28;20588;-75
2023/08/10 02:53:20;;;;;;;16.47;2.93;;;;;;;12.59;100.00;101221.72;5024357;28;20033;-75
2023/08/10 02:55:46;;;;;;;11.80;1.70;;;;;;;12.71;100.00;101256.25;5024441;28;20053;-75
2023/08/10 02:58:11;;;;;;;11.50;2.73;;;;;;;12.64;100.00;101248.88;5021369;28;20670;-75
2023/08/10 03:00:37;;;;;;;7.23;1.73;;;;;;;12.67;100.00;101285.22;5033921;28;20022;-74
2023/08/10 03:03:04;;;;;;;12.57;2.70;;;;;;;12.58;100.00;101262.09;5015930;28;20439;-75
2023/08/10 03:05:29;;;;;;;17.15;2.65;;;;;;;12.57;100.00;101269.28;5015105;28;20228;-73
2023/08/10 03:07:55;;;;;;;12.02;2.15;;;;;;;12.56;100.00;101259.56;5025027;28;20103;-74
2023/08/10 03:10:21;;;;;;;7.38;2.08;;;;;;;12.50;100.00;101260.19;4997122;28;20397;-73
2023/08/10 03:12:47;;;;;;;11.10;1.85;;;;;;;12.49;100.00;101261.22;5037742;28;20477;-74
2023/08/10 03:15:12;;;;;;;13.13;2.90;;;;;;;12.50;100.00;101229.91;5011960;28;20025;-76
2023/08/10 03:17:41;;;;;;;11.30;2.40;;;;;;;12.56;100.00;101219.38;5025290;28;20053;-75
2023/08/10 03:20:16;;;;;;;17.35;3.00;;;;;;;12.60;100.00;101210.03;5007775;28;20053;-75
2023/08/10 03:22:44;;;;;;;7.82;2.83;;;;;;;12.64;100.00;101223.91;5009136;28;20079;-74
2023/08/10 03:25:10;;;;;;;;;;;;;;;12.54;100.00;101258.88;5022531;28;20133;-73
2023/08/10 03:27:35;;;;;;;15.55;1.92;;;;;;;12.50;100.00;101262.03;5022684;28;20283;-75
2023/08/10 03:30:02;;;;;;;13.20;2.10;;;;;;;12.46;100.00;101277.63;5006871;28;20108;-74
2023/08/10 03:32:30;;;;;;;16.70;2.08;;;;;;;12.50;100.00;101272.75;5038537;28;20029;-74
2023/08/10 03:34:55;;;;;;;9.57;2.40;;;;;;;12.39;100.00;101264.03;5017242;28;20524;-75
2023/08/10 03:37:21;;;;;;;11.73;2.67;;;;;;;12.39;100.00;101280.09;5004653;28;20088;-73
2023/08/10 03:39:46;;;;;;;6.83;2.23;;;;;;;12.36;100.00;101272.41;5004470;28;20079;-75
2023/08/10 03:42:11;;;;;;;12.83;2.30;;;;;;;12.41;100.00;101261.19;5020687;28;20132;-74
2023/08/10 03:44:37;;;;;;;13.87;2.67;;;;;;;12.43;100.00;101240.44;5039291;28;20022;-75
2023/08/10 03:47:03;;;;;;;14.02;2.28;;;;;;;12.32;100.00;101252.28;5024067;28;20033;-75
2023/08/10 03:49:29;;;;;;;14.77;2.70;;;;;;;12.24;100.00;101245.06;5015946;28;20105;-75
2023/08/10 03:51:55;;;;;;;8.35;2.70;;;;;;;12.32;100.00;101252.28;5019082;28;20069;-74
2023/08/10 03:54:21;;;;;;;;;;;;;;;12.35;100.00;101248.44;5030753;28;20026;-74
2023/08/10 03:56:47;;;;;;;;;;;;;;;12.31;100.00;101244.41;5010918;28;20372;-75
2023/08/10 03:59:13;;;;;;;11.93;1.90;;;;;;;12.27;100.00;101264.47;5003332;28;20422;-75
2023/08/10 04:01:39;;;;;;;10.65;2.55;;;;;;;12.29;100.00;101283.88;5023753;28;20029;-75
2023/08/10 04:04:05;;;;;;;13.50;2.35;;;;;;;12.14;100.00;101284.50;5015937;28;20072;-74
2023/08/10 04:06:31;;;;;;;12.70;2.58;;;;;;;12.22;100.00;101308.63;5015257;28;20388;-75
2023/08/10 04:08:56;;;;;;;13.85;2.05;;;;;;;12.23;100.00;101290.72;5023968;28;20105;-75
2023/08/10 04:11:22;;;;;;;13.87;2.10;;;;;;;12.25;100.00;101270.84;5005699;28;20045;-75
2023/08/10 04:13:47;;;;;;;11.10;2.00;;;;;;;12.31;100.00;101269.34;5020527;28;20030;-75
2023/08/10 04:16:13;;;;;;;13.60;3.08;;;;;;;12.29;100.00;101263.34;5006061;28;20042;-73
2023/08/10 04:18:39;;;;;;;11.33;2.00;;;;;;;12.47;100.00;101287.31;5033278;28;20568;-75
2023/08/10 04:21:05;;;;;;;11.40;2.22;;;;;;;12.40;100.00;101284.44;4995066;28;20030;-73
2023/08/10 04:23:30;;;;;;;;;;;;;;;12.54;100.00;101295.53;5017372;28;20029;-75
2023/08/10 04:25:56;;;;;;;;;;;;;;;12.51;100.00;101286.00;5007787;28;20273;-74
2023/08/10 04:28:22;;;;;;;9.40;1.63;;;;;;;12.54;100.00;101292.88;5033888;28;20568;-74
2023/08/10 04:30:47;;;;;;;9.93;2.10;;;;;;;12.49;100.00;101296.03;5014533;28;20080;-74
2023/08/10 04:33:13;;;;;;;16.83;2.20;;;;;;;12.53;100.00;101284.00;5030699;28;20068;-74
2023/08/10 04:35:38;;;;;;;8.43;2.50;;;;;;;12.55;100.00;101270.44;5010478;28;20029;-74
2023/08/10 04:38:04;;;;;;;11.20;2.90;;;;;;;12.65;100.00;101295.25;5027153;28;20540;-73
2023/08/10 04:40:29;;;;;;;10.30;2.20;;;;;;;12.51;100.00;101263.75;4991438;28;20034;-73
2023/08/10 04:42:54;;;;;;;10.80;1.90;;;;;;;12.62;100.00;101306.31;5007146;28;20512;-72
2023/08/10 04:45:20;;;;;;;14.07;2.57;;;;;;;12.64;100.00;101285.53;5026572;28;20087;-74
2023/08/10 04:47:46;;;;;;;8.73;1.77;;;;;;;12.60;100.00;101279.66;5018891;28;20400;-75
2023/08/10 04:50:11;;;;;;;8.45;2.28;;;;;;;12.66;100.00;101289.72;5010108;28;20038;-75
2023/08/10 04:52:37;;;;;;;6.07;2.47;;;;;;;12.66;100.00;101303.09;5017533;28;20032;-75
2023/08/10 04:55:03;;;;;;;16.03;3.30;;;;;;;12.68;100.00;101290.38;5006899;28;20030;-74
2023/08/10 04:57:29;;;;;;;7.10;2.13;;;;;;;12.71;100.00;101320.53;5027412;28;20401;-72
2023/08/10 04:59:54;;;;;;;8.83;3.27;;;;;;;12.79;100.00;101337.50;5026447;28;20052;-74
2023/08/10 05:02:19;;;;;;;13.67;2.43;;;;;;;12.82;100.00;101334.47;5027440;28;20118;-74
2023/08/10 05:04:45;;;;;;;7.37;1.70;;;;;;;12.72;100.00;101301.63;5017852;28;20083;-75
2023/08/10 05:07:10;;;;;;;11.53;2.13;;;;;;;12.78;100.00;101322.44;5025994;28;20034;-75
2023/08/10 05:09:37;;;;;;;9.63;2.10;;;;;;;12.71;100.00;101291.06;5024872;28;20025;-75
2023/08/10 05:12:03;;;;;;;9.52;2.55;;;;;;;12.83;100.00;101311.19;5026106;28;20021;-73
2023/08/10 05:14:29;;;;;;;13.35;2.25;;;;;;;12.80;100.00;101322.25;5029215;28;20822;-73
2023/08/10 05:16:54;;;;;;;5.07;2.37;;;;;;;12.87;100.00;101329.47;5034643;28;20120;-73
2023/08/10 05:19:19;;;;;;;18.20;3.63;;;;;;;12.95;100.00;101311.75;5030796;28;20508;-74
2023/08/10 05:21:45;;;;;;;9.73;2.03;;;;;;;12.97;100.00;101278.41;5019206;28;20036;-75
2023/08/10 05:24:10;;;;;;;11.77;2.23;;;;;;;13.02;100.00;101285.97;5025400;28;20041;-74
2023/08/10 05:26:35;;;;;;;7.30;2.60;;;;;;;13.12;100.00;101286.63;5025178;28;20022;-75
2023/08/10 05:29:01;;;;;;;9.13;1.87;;;;;;;13.14;100.00;101260.50;5028205;28;20451;-75
2023/08/10 05:31:26;;;;;;;10.40;2.57;;;;;;;13.16;100.00;101252.28;5028231;28;20032;-75
2023/08/10 05:33:51;;;;;;;5.93;2.50;;;;;;;12.98;100.00;101220.28;5025638;28;20033;-75
2023/08/10 05:36:17;;;;;;;6.27;1.67;;;;;;;13.14;100.00;101246.28;5026249;28;20047;-75
2023/08/10 05:38:42;;;;;;;9.20;2.40;;;;;;;13.16;100.00;101222.78;5028397;28;20079;-75
2023/08/10 05:41:07;;;;;;;12.43;2.17;;;;;;;13.23;100.00;101192.47;5034140;28;20035;-75
2023/08/10 05:43:33;;;;;;;13.17;2.60;;;;;;;13.23;100.00;101178.25;5027635;28;20435;-75
2023/08/10 05:45:58;;;;;;;6.80;1.80;;;;;;;13.25;100.00;101197.66;5027567;28;20512;-75
2023/08/10 05:48:24;;;;;;;9.40;2.27;;;;;;;13.26;100.00;101193.97;5027725;28;20040;-73
2023/08/10 05:50:49;;;;;;;15.20;2.43;;;;;;;13.31;100.00;101202.38;5023889;28;20025;-73
2023/08/10 05:53:14;;;;;;;13.60;2.23;;;;;;;13.40;100.00;101187.94;5032102;28;20040;-75
2023/08/10 05:55:41;;;;;;;11.10;1.97;;;;;;;13.46;100.00;101176.56;5008962;28;20035;-75
2023/08/10 05:58:06;;;;;;;11.80;2.03;;;;;;;13.54;100.00;101199.00;5026341;28;20041;-74
2023/08/10 06:00:32;;;;;;;10.57;2.08;;;;;;;13.68;100.00;101187.56;5024885;28;20066;-75
2023/08/10 06:02:57;;;;;;;7.45;2.42;;;;;;;13.73;100.00;101201.28;5025230;28;20339;-75
2023/08/10 06:05:23;;;;;;;9.23;2.27;;;;;;;13.70;100.00;101185.53;5008147;28;20017;-75
2023/08/10 06:07:48;;;;;;;8.77;1.85;;;;;;;13.61;100.00;101165.13;5023888;28;20030;-75
2023/08/10 06:10:18;;;;;;;10.30;1.60;;;;;;;13.96;100.00;101214.81;5038548;28;20535;-72
2023/08/10 06:12:44;;;;;;;10.13;2.42;;;;;;;13.89;100.00;101184.31;5026081;28;20033;-73
2023/08/10 06:15:10;;;;;;;8.27;1.75;;;;;;;14.07;100.00;101246.66;5024596;28;20504;-74
2023/08/10 06:17:39;;;;;;;11.93;3.10;;;;;;;14.13;100.00;101186.03;5026966;28;20033;-75
2023/08/10 06:20:16;;;;;;;7.35;2.25;;;;;;;14.23;100.00;101178.59;5021908;28;20439;-74
2023/08/10 06:22:42;;;;;;;11.30;2.08;;;;;;;14.25;100.00;101124.72;5024724;28;20037;-75
2023/08/10 06:25:09;;;;;;;12.18;1.80;;;;;;;14.26;100.00;101119.19;5024254;28;20029;-75
2023/08/10 06:27:35;;;;;;;12.88;2.30;;;;;;;14.31;100.00;101135.59;5024559;28;20428;-73
2023/08/10 06:30:02;;;;;;;10.63;1.92;;;;;;;14.42;100.00;101125.44;5008047;28;20014;-75
2023/08/10 06:32:28;;;;;;;12.30;2.65;;;;;;;14.54;100.00;101138.34;5023062;28;20432;-75
2023/08/10 06:34:56;;;;;;;13.38;3.03;;;;;;;14.50;100.00;101128.09;5024137;28;20447;-75
2023/08/10 06:37:22;;;;;;;11.05;2.22;;;;;;;14.46;100.00;101121.41;5023839;28;20112;-75
2023/08/10 06:39:48;;;;;;;13.15;2.30;;;;;;;14.56;100.00;101184.66;5025080;28;20029;-75
2023/08/10 06:42:13;;;;;;;10.05;2.55;;;;;;;14.63;100.00;101222.38;5027254;28;20341;-75
2023/08/10 06:44:40;;;;;;;12.10;2.42;;;;;;;14.88;100.00;101227.63;5024094;28;20103;-74
2023/08/10 06:47:06;;;;;;;9.07;2.47;;;;;;;14.88;100.00;101222.25;5024451;28;20481;-75
2023/08/10 06:49:31;;;;;;;11.77;2.00;;;;;;;15.18;100.00;101232.09;5038863;28;20113;-74
2023/08/10 06:51:57;;;;;;;13.73;2.50;;;;;;;15.32;100.00;101194.66;5040811;28;20033;-74
2023/08/10 06:54:23;;;;;;;21.37;3.20;;;;;;;15.25;100.00;101126.47;5025653;28;20061;-75
2023/08/10 06:56:49;;;;;;;5.18;1.52;;;;;;;15.10;100.00;100989.28;5023066;28;20116;-74
2023/08/10 06:59:14;;;;;;;7.23;2.33;;;;;;;15.29;100.00;100964.53;5025268;28;20099;-74
2023/08/10 07:01:40;;;;;;;9.70;2.97;;;;;;;15.37;100.00;100977.84;5024667;28;20115;-74
2023/08/10 07:04:08;;;;;;;14.93;2.13;;;;;;;15.57;100.00;100982.66;5040415;28;20485;-75
2023/08/10 07:06:33;;;;;;;16.55;1.73;;;;;;;15.54;100.00;100930.03;5023335;28;20785;-75
2023/08/10 07:08:59;;;;;;;7.63;1.97;;;;;;;15.60;100.00;100964.25;5037810;28;20036;-73
2023/08/10 07:11:24;;;;;;;6.77;2.03;;;;;;;15.52;100.00;100891.72;5022987;28;20114;-72
2023/08/10 07:13:49;;;;;;;9.90;1.57;;;;;;;15.29;100.00;100848.00;5023687;28;20076;-75
2023/08/10 07:16:15;;;;;;;12.73;2.50;;;;;;;14.97;100.00;100778.41;5024834;28;20037;-74
2023/08/10 07:18:41;;;;;;;5.68;1.40;;;;;;;15.05;100.00;100863.47;5040677;28;20033;-75
2023/08/10 07:21:06;;;;;;;10.97;1.50;;;;;;;14.83;100.00;100993.47;5023793;28;20060;-74
2023/08/10 07:23:32;;;;;;;16.40;2.73;;;;;;;14.89;100.00;101092.19;5025604;28;20284;-75
2023/08/10 07:25:57;;;;;;;6.22;1.17;;;;;;;14.85;100.00;101048.72;5007157;28;20057;-75
2023/08/10 07:28:23;;;;;;;14.63;2.03;;;;;;;14.83;100.00;101017.66;5024784;28;20037;-74
2023/08/10 07:30:52;;;;;;;8.30;1.45;;;;;;;14.93;100.00;101188.41;5023721;28;20025;-73
2023/08/10 07:33:18;;;;;;;9.90;1.80;;;;;;;14.67;100.00;101239.00;5006119;28;20045;-75
2023/08/10 07:35:44;;;;;;;11.77;3.17;;;;;;;14.85;100.00;101335.50;5039617;28;20025;-74
2023/08/10 07:38:10;;;;;;;;;;;;;;;14.87;100.00;101232.16;5024112;28;20120;-75
2023/08/10 07:40:36;;;;;;;8.02;1.85;;;;;;;15.09;100.00;101313.00;5025817;28;20003;-74
2023/08/10 07:43:01;;;;;;;12.82;2.83;;;;;;;15.19;100.00;101279.50;5023710;28;20091;-75
2023/08/10 07:45:26;;;;;;;18.73;2.37;;;;;;;15.40;100.00;101208.00;5023135;28;20068;-74
2023/08/10 07:47:52;;;;;;;9.60;1.70;;;;;;;15.80;100.00;101189.78;5024714;28;20037;-74
2023/08/10 07:50:17;;;;;;;10.23;2.70;;;;;;;15.81;100.00;101090.00;5026062;28;20029;-75
2023/08/10 07:52:43;;;;;;;5.80;2.27;;;;;;;15.87;100.00;101061.47;5027494;28;20024;-74
2023/08/10 07:55:09;;;;;;;6.35;2.03;;;;;;;16.64;100.00;100922.47;5040747;28;20284;-74
2023/08/10 07:57:34;;;;;;;8.18;1.83;;;;;;;17.72;100.00;100710.28;5028455;28;20045;-73
2023/08/10 08:00:05;;;;;;;13.93;2.72;;;;;;;18.18;100.00;100483.44;5010963;28;20022;-75
2023/08/10 08:02:38;;;;;;;10.50;1.60;;;;;;;18.17;100.00;100211.59;5027074;28;20033;-75
2023/08/10 08:05:04;;;;;;;5.25;1.52;;;;;;;19.15;100.00;100524.38;5028331;28;20044;-75
2023/08/10 08:07:32;;;;;;;9.27;2.05;;;;;;;19.32;100.00;100237.75;5027055;28;20400;-75
2023/08/10 08:09:59;;;;;;;10.57;1.77;;;;;;;18.92;100.00;99997.63;5026875;28;20481;-75
2023/08/10 08:12:28;;;;;;;8.27;1.63;;;;;;;19.15;100.00;100031.94;5040389;28;20063;-73
2023/08/10 08:14:54;;;;;;;16.45;2.10;;;;;;;18.92;100.00;99978.69;5028010;28;20034;-75
2023/08/10 08:17:20;;;;;;;8.98;1.98;;;;;;;19.32;100.00;99938.16;5026702;28;20116;-75
2023/08/10 08:19:48;;;;;;;8.75;1.98;;;;;;;19.08;100.00;99657.91;5020819;28;20087;-74
2023/08/10 08:22:14;;;;;;;9.53;2.50;;;;;;;19.29;100.00;100081.22;5026120;28;20402;-72
2023/08/10 08:24:40;;;;;;;8.88;1.63;;;;;;;18.86;100.00;100039.94;5038726;28;20050;-74
2023/08/10 08:27:05;;;;;;;;;;;;;;;18.26;100.00;99813.06;5026701;28;20029;-75
2023/08/10 08:29:31;;;;;;;11.70;1.90;;;;;;;18.23;100.00;100038.59;5026980;28;19963;-75
2023/08/10 08:31:57;;;;;;;9.65;2.13;;;;;;;18.59;100.00;100060.31;5027706;28;20017;-75
2023/08/10 08:34:22;;;;;;;11.00;2.23;;;;;;;17.99;100.00;100045.81;5025375;28;20063;-75
2023/08/10 08:36:48;;;;;;;7.33;1.67;;;;;;;18.49;100.00;100267.13;5026892;28;20276;-75
2023/08/10 08:39:13;;;;;;;12.50;1.80;;;;;;;19.03;100.00;100201.53;5012363;28;21126;-74
2023/08/10 08:41:39;;;;;;;10.98;1.73;;;;;;;18.65;100.00;100056.69;5043140;28;20049;-73
2023/08/10 08:44:06;;;;;;;12.73;1.60;;;;;;;18.11;100.00;99865.69;5043253;28;20566;-74
2023/08/10 08:46:33;;;;;;;11.88;1.55;;;;;;;18.01;100.00;99940.25;5024145;28;20025;-73
2023/08/10 08:49:00;;;;;;;12.35;3.05;;;;;;;18.40;100.00;100271.19;5007071;28;20125;-75
2023/08/10 08:51:27;;;;;;;8.25;2.03;;;;;;;18.45;100.00;100236.22;5016136;28;20072;-75
2023/08/10 08:53:53;;;;;;;10.93;1.70;;;;;;;17.90;100.00;100066.06;5017013;28;20030;-75
2023/08/10 08:56:19;;;;;;;9.32;2.33;;;;;;;18.73;100.00;99959.00;5007850;28;20238;-75
2023/08/10 08:58:45;;;;;;;9.05;1.88;;;;;;;19.33;97.16;99877.53;5025525;28;20044;-74
2023/08/10 09:01:13;;;;;;;14.25;2.40;;;;;;;19.39;96.89;99882.00;5005473;28;20065;-75
2023/08/10 09:03:38;;;;;;;9.55;2.92;;;;;;;19.54;96.63;99938.31;5023229;28;20029;-75
2023/08/10 09:06:04;;;;;;;10.55;1.80;;;;;;;19.54;94.22;99837.31;5015739;28;20042;-72
2023/08/10 09:08:29;;;;;;;7.32;1.60;;;;;;;20.08;90.87;99742.88;5008975;28;20488;-74
2023/08/10 09:10:55;;;;;;;7.03;1.40;;;;;;;20.73;87.46;99680.81;5042948;28;20423;-75
2023/08/10 09:13:22;;;;;;;9.95;1.70;;;;;;;20.84;85.61;99576.78;5024058;28;20053;-75
2023/08/10 09:16:05;;;;;;;13.18;2.05;;;;;;;20.18;86.52;99537.09;5020052;28;20045;-74
2023/08/10 09:18:34;;;;;;;9.60;1.98;;;;;;;19.60;89.63;99718.06;5040243;28;20377;-75
2023/08/10 09:21:14;;;;;;;7.75;1.83;;;;;;;21.02;91.27;100265.59;5025638;28;20657;-75
2023/08/10 09:23:48;;;;;;;12.18;1.83;;;;;;;20.07;90.31;99886.75;5040920;28;20038;-74
2023/08/10 09:26:18;;;;;;;11.55;1.67;;;;;;;20.58;90.33;100023.13;5017657;28;20192;-72
2023/08/10 09:28:45;;;;;;;10.43;1.98;;;;;;;20.91;89.63;100065.72;5034380;28;20990;-73
2023/08/10 09:31:11;;;;;;;8.85;1.45;;;;;;;21.45;88.30;100066.00;5018058;28;20094;-74
2023/08/10 09:33:37;;;;;;;;;;;;;;;20.61;81.86;99268.84;5024149;28;20037;-75
2023/08/10 09:36:04;;;;;;;9.68;2.08;;;;;;;20.29;81.83;99307.66;5017820;28;20287;-74
2023/08/10 09:38:30;;;;;;;13.95;2.58;;;;;;;21.00;84.02;99730.47;5027126;28;20475;-74
2023/08/10 09:41:14;;;;;;;9.38;1.63;;;;;;;21.68;83.45;99912.81;5024137;28;20112;-75
2023/08/10 09:43:41;;;;;;;7.57;1.48;;;;;;;22.10;76.23;99288.88;5030748;28;20042;-76
2023/08/10 09:46:09;;;;;;;8.43;2.00;;;;;;;22.44;76.02;99369.91;5012501;28;20053;-75
2023/08/10 09:48:40;;;;;;;5.18;1.33;;;;;;;22.72;73.51;99262.38;5011149;28;20037;-75
2023/08/10 09:51:08;;;;;;;10.25;2.03;;;;;;;21.96;75.23;99326.69;5020095;28;20038;-75
2023/08/10 09:53:34;;;;;;;10.85;1.80;;;;;;;21.32;71.05;98744.38;5040344;28;20035;-75
2023/08/10 09:56:00;;;;;;;8.50;1.83;;;;;;;19.97;75.07;98931.22;5017585;28;20485;-75
2023/08/10 09:58:26;;;;;;;;;;;;;;;19.45;76.47;99068.25;5017534;28;20395;-75
2023/08/10 10:00:52;;;;;;;8.55;1.52;;;;;;;19.71;74.82;98963.66;5008040;28;19914;-75
2023/08/10 10:03:19;;;;;;;6.38;1.63;;;;;;;19.57;77.43;99273.75;5035169;28;20125;-74
2023/08/10 10:05:45;;;;;;;6.32;1.50;;;;;;;20.54;82.18;100025.47;5033086;28;20439;-72
2023/08/10 10:08:14;;;;;;;5.00;1.20;;;;;;;22.00;77.36;99914.72;5015431;28;20112;-74
2023/08/10 10:10:42;;;;;;;6.85;1.80;;;;;;;21.70;73.41;99359.28;5033369;28;20116;-75
2023/08/10 10:13:11;;;;;;;7.60;2.17;;;;;;;22.31;74.56;99725.53;5017592;28;20036;-74
2023/08/10 10:15:39;;;;;;;5.75;1.50;;;;;;;23.26;70.96;99596.47;5032407;28;20041;-73
2023/08/10 10:18:05;;;;;;;5.38;1.50;;;;;;;23.58;68.18;99378.22;5019423;28;20030;-75
2023/08/10 10:20:31;;;;;;;8.00;1.45;;;;;;;23.22;66.32;99123.56;5040333;28;20045;-74
2023/08/10 10:22:57;;;;;;;10.02;1.85;;;;;;;22.27;65.51;98740.38;5025826;28;20021;-73
2023/08/10 10:25:23;;;;;;;6.20;1.73;;;;;;;21.01;65.96;98524.06;5018541;28;20508;-73
2023/08/10 10:27:52;;;;;;;11.30;2.03;;;;;;;20.00;69.65;98781.72;5000087;28;20025;-75
2023/08/10 10:30:18;;;;;;;5.95;1.90;;;;;;;19.11;73.97;99040.72;5034927;28;20296;-73
2023/08/10 10:32:49;;;;;;;14.98;2.00;;;;;;;19.34;76.82;99472.47;5014932;28;20052;-73
2023/08/10 10:35:20;;;;;;;5.50;1.17;;;;;;;19.97;73.88;99383.53;5020977;28;20037;-75
2023/08/10 10:37:54;;;;;;;5.13;1.50;;;;;;;21.65;74.18;99867.13;5019095;28;20109;-73
2023/08/10 10:40:22;;;;;;;6.07;1.60;;;;;;;22.64;72.73;99927.50;5034103;28;20167;-74
2023/08/10 10:43:03;;;;;;;5.47;2.08;;;;;;;23.83;69.69;99891.50;5025569;28;20045;-75
2023/08/10 10:45:33;;;;;;;5.80;1.40;;;;;;;21.16;65.49;98507.63;5023212;28;20877;-72
2023/08/10 10:47:58;;;;;;;10.40;1.70;;;;;;;20.46;70.84;99128.56;5024224;28;20036;-72
2023/08/10 10:50:28;;;;;;;9.03;1.67;;;;;;;20.52;75.28;99628.25;5023868;28;20022;-72
2023/08/10 10:53:04;;;;;;;7.28;1.20;;;;;;;21.42;72.16;99629.38;5037936;28;20570;-74
2023/08/10 10:55:35;;;;;;;;;;;;;;;22.41;66.03;99117.59;5008406;28;20485;-75
2023/08/10 10:58:05;;;;;;;8.00;1.33;;;;;;;21.71;65.18;98831.31;5036064;28;19916;-74
2023/08/10 11:00:33;;;;;;;7.53;1.38;;;;;;;21.76;65.32;98902.97;5007463;28;20037;-74
2023/08/10 11:02:59;;;;;;;10.02;1.60;;;;;;;21.08;65.71;98758.63;5025316;28;20013;-73
2023/08/10 11:05:24;;;;;;;6.95;1.92;;;;;;;21.31;67.00;99125.47;5023876;28;20044;-74
2023/08/10 11:07:51;;;;;;;6.77;1.87;;;;;;;21.93;64.85;99007.44;5024346;28;20032;-72
2023/08/10 11:10:19;;;;;;;4.53;1.10;;;;;;;21.97;62.71;98757.75;5007672;28;20349;-74
2023/08/10 11:12:45;;;;;;;4.60;1.70;;;;;;;22.34;61.65;98788.97;5025077;28;20021;-74
2023/08/10 11:15:14;;;;;;;7.38;2.00;;;;;;;22.89;62.10;99091.41;5026203;28;20045;-75
2023/08/10 11:17:41;;;;;;;6.93;2.08;;;;;;;23.51;63.11;99410.38;5018746;28;20029;-73